createdAt,value
2018-09-06T00:04:35.841Z,17.70
2018-09-06T00:09:38.937Z,17.60
2018-09-06T00:14:42.046Z,17.60
2018-09-06T00:19:45.174Z,17.50
2018-09-06T00:24:48.293Z,17.40
2018-09-06T00:29:51.378Z,17.30
2018-09-06T00:34:54.477Z,17.30
2018-09-06T00:39:57.575Z,17.30
2018-09-06T00:45:00.670Z,17.20
2018-09-06T00:50:04.343Z,17.20
2018-09-06T00:55:07.443Z,17.20
2018-09-06T01:00:10.563Z,17.10
2018-09-06T01:05:13.717Z,17.10
2018-09-06T01:10:16.829Z,17.10
2018-09-06T01:15:19.914Z,17.00
2018-09-06T01:20:23.010Z,17.00
2018-09-06T01:25:30.038Z,17.00
2018-09-06T01:30:33.135Z,16.90
2018-09-06T01:35:36.201Z,16.90
2018-09-06T01:40:39.309Z,16.90
2018-09-06T01:45:42.385Z,16.80
2018-09-06T01:50:45.483Z,16.70
2018-09-06T01:55:48.569Z,16.70
2018-09-06T02:00:51.652Z,16.60
2018-09-06T02:05:54.782Z,16.60
2018-09-06T02:10:57.891Z,16.50
2018-09-06T02:16:00.977Z,16.50
2018-09-06T02:21:04.082Z,16.40
2018-09-06T02:26:07.154Z,16.40
2018-09-06T02:31:10.248Z,16.40
2018-09-06T02:36:13.341Z,16.30
2018-09-06T02:41:16.459Z,16.30
2018-09-06T02:46:19.572Z,16.30
2018-09-06T02:51:22.679Z,16.30
2018-09-06T02:56:25.761Z,16.30
2018-09-06T03:01:28.880Z,16.30
2018-09-06T03:06:31.969Z,16.20
2018-09-06T03:11:40.533Z,16.10
2018-09-06T03:16:43.618Z,16.10
2018-09-06T03:21:46.725Z,16.00
2018-09-06T03:26:49.809Z,15.90
2018-09-06T03:31:52.915Z,15.90
2018-09-06T03:36:56.020Z,15.80
2018-09-06T03:41:59.111Z,15.80
2018-09-06T03:47:02.648Z,15.80
2018-09-06T03:52:05.753Z,15.90
2018-09-06T03:57:08.853Z,15.90
2018-09-06T04:02:11.962Z,15.90
2018-09-06T04:07:15.090Z,16.00
2018-09-06T04:12:18.188Z,16.00
2018-09-06T04:17:21.308Z,16.00
2018-09-06T04:22:24.447Z,16.00
2018-09-06T04:27:27.565Z,16.10
2018-09-06T04:32:30.677Z,16.10
2018-09-06T04:37:33.811Z,16.10
2018-09-06T04:42:39.272Z,16.20
2018-09-06T04:47:42.385Z,16.20
2018-09-06T04:52:45.503Z,16.20
2018-09-06T04:57:48.621Z,16.30
2018-09-06T05:02:51.705Z,16.30
2018-09-06T05:07:54.813Z,16.40
2018-09-06T05:12:57.913Z,16.40
2018-09-06T05:18:01.300Z,16.40
2018-09-06T05:23:04.994Z,16.50
2018-09-06T05:28:08.127Z,16.50
2018-09-06T05:33:11.358Z,16.60
2018-09-06T05:38:14.448Z,16.60
2018-09-06T05:43:17.640Z,16.70
2018-09-06T05:48:20.782Z,16.70
2018-09-06T05:53:23.923Z,16.80
2018-09-06T05:58:27.029Z,16.80
2018-09-06T06:03:30.841Z,16.90
2018-09-06T06:08:45.526Z,16.90
2018-09-06T06:13:48.750Z,17.00
2018-09-06T06:18:51.890Z,17.00
2018-09-06T06:23:54.948Z,17.10
2018-09-06T06:28:58.038Z,17.10
2018-09-06T06:34:03.188Z,17.10
2018-09-06T06:39:08.998Z,17.10
2018-09-06T06:44:12.125Z,17.20
2018-09-06T06:49:19.526Z,17.20
2018-09-06T06:54:22.605Z,17.20
2018-09-06T06:59:25.775Z,17.30
2018-09-06T07:04:28.909Z,17.30
2018-09-06T07:09:33.466Z,17.30
2018-09-06T07:14:36.557Z,17.40
2018-09-06T07:19:39.819Z,17.50
2018-09-06T07:24:42.937Z,17.50
2018-09-06T07:29:46.037Z,17.60
2018-09-06T07:34:49.142Z,17.60
2018-09-06T07:39:53.429Z,17.70
2018-09-06T07:44:56.516Z,17.80
2018-09-06T07:49:59.970Z,17.90
2018-09-06T07:55:03.061Z,18.00
2018-09-06T08:00:06.201Z,18.20
2018-09-06T08:05:15.072Z,18.40
2018-09-06T08:10:18.149Z,18.60
2018-09-06T08:15:21.228Z,18.80
2018-09-06T08:20:24.332Z,18.90
2018-09-06T08:25:31.262Z,19.10
2018-09-06T08:30:34.334Z,19.30
2018-09-06T08:35:37.419Z,19.40
2018-09-06T08:40:40.499Z,19.60
2018-09-06T08:45:43.590Z,19.70
2018-09-06T08:50:46.701Z,19.90
2018-09-06T08:55:49.873Z,20.00
2018-09-06T09:00:58.606Z,20.20
2018-09-06T09:06:01.771Z,20.30
2018-09-06T09:11:05.171Z,20.50
2018-09-06T09:16:08.367Z,20.60
2018-09-06T09:26:20.993Z,21.10
2018-09-06T09:31:24.455Z,21.40
2018-09-06T09:52:53.600Z,22.90
2018-09-06T09:57:56.690Z,23.40
2018-09-06T10:03:05.204Z,23.70
2018-09-06T10:08:13.657Z,24.20
2018-09-06T10:13:16.738Z,24.60
2018-09-06T10:34:44.553Z,26.20
2018-09-06T10:39:53.440Z,26.50
2018-09-06T10:44:56.586Z,26.90
2018-09-06T10:50:01.610Z,27.20
2018-09-06T10:55:04.684Z,27.50
2018-09-06T11:00:07.816Z,27.80
2018-09-06T11:05:10.922Z,28.10
2018-09-06T11:10:14.006Z,28.30
2018-09-06T11:15:18.463Z,28.50
2018-09-06T11:36:46.401Z,28.80
2018-09-06T11:41:49.457Z,28.90
2018-09-06T11:46:52.605Z,29.10
2018-09-06T11:51:55.833Z,29.10
2018-09-06T11:57:00.094Z,29.30
2018-09-06T12:18:27.937Z,29.80
2018-09-06T12:23:31.333Z,29.80
2018-09-06T12:28:34.389Z,29.70
2018-09-06T12:33:38.352Z,29.80
2018-09-06T12:43:52.209Z,29.70
2018-09-06T12:48:55.260Z,29.60
2018-09-06T12:53:58.541Z,29.80
2018-09-06T12:59:05.406Z,29.90
2018-09-06T13:04:08.475Z,29.90
2018-09-06T13:09:11.548Z,30.10
2018-09-06T13:14:14.611Z,30.20
2018-09-06T13:19:17.664Z,30.20
2018-09-06T13:24:20.725Z,30.20
2018-09-06T13:29:23.791Z,30.10
2018-09-06T13:34:33.492Z,29.90
2018-09-06T13:39:36.549Z,29.80
2018-09-06T13:44:39.612Z,29.60
2018-09-06T13:49:42.673Z,29.50
2018-09-06T13:54:51.400Z,29.30
2018-09-06T13:59:54.534Z,29.20
2018-09-06T14:04:57.622Z,29.00
2018-09-06T14:10:00.638Z,29.00
2018-09-06T14:15:03.719Z,28.90
2018-09-06T14:20:06.800Z,28.80
2018-09-06T14:25:09.892Z,28.70
2018-09-06T14:30:13.058Z,28.60
2018-09-06T14:35:16.146Z,28.50
2018-09-06T14:56:44.421Z,28.00
2018-09-06T15:01:47.576Z,28.10
2018-09-06T15:06:50.678Z,27.90
2018-09-06T15:11:53.789Z,27.90
2018-09-06T15:16:56.860Z,27.80
2018-09-06T15:21:59.950Z,27.70
2018-09-06T15:27:03.030Z,27.50
2018-09-06T15:32:06.302Z,27.40
2018-09-06T15:37:10.310Z,27.40
2018-09-06T15:42:14.316Z,27.30
2018-09-06T16:03:41.971Z,26.70
2018-09-06T16:08:45.033Z,26.60
2018-09-06T16:13:48.099Z,26.50
2018-09-06T16:18:51.165Z,26.30
2018-09-06T16:40:18.150Z,25.70
2018-09-06T16:45:21.251Z,25.50
2018-09-06T17:06:49.523Z,24.70
2018-09-06T17:11:52.789Z,24.50
2018-09-06T17:16:56.946Z,24.40
2018-09-06T17:22:01.050Z,24.20
2018-09-06T17:27:04.237Z,24.00
2018-09-06T17:32:07.338Z,23.90
2018-09-06T17:37:10.403Z,23.80
2018-09-06T17:42:13.498Z,23.70
2018-09-06T17:47:16.605Z,23.60
2018-09-06T18:08:44.507Z,23.20
2018-09-06T18:13:47.586Z,23.10
2018-09-06T18:35:15.540Z,22.50
2018-09-06T18:40:18.753Z,22.40
2018-09-06T19:01:45.899Z,21.80
2018-09-06T19:06:49.132Z,21.70
2018-09-06T19:11:52.793Z,21.60
2018-09-06T19:16:56.405Z,21.50
2018-09-06T19:38:24.333Z,21.10
2018-09-06T19:59:53.284Z,20.80
2018-09-06T20:04:57.342Z,20.70
2018-09-06T20:26:25.258Z,20.30
2018-09-06T20:31:28.406Z,20.30
2018-09-06T20:36:31.609Z,20.20
2018-09-06T20:41:35.758Z,20.10
2018-09-06T20:46:40.602Z,20.00
2018-09-06T21:08:08.230Z,19.60
2018-09-06T21:13:11.970Z,19.60
2018-09-06T21:34:40.688Z,19.10
2018-09-06T21:39:43.817Z,19.00
2018-09-06T21:44:46.961Z,18.90
2018-09-06T21:49:50.129Z,18.80
2018-09-06T21:54:53.220Z,18.70
2018-09-06T21:59:56.384Z,18.60
2018-09-06T22:04:59.460Z,18.50
2018-09-06T22:10:02.683Z,18.40
2018-09-06T22:15:05.768Z,18.30
2018-09-06T22:36:33.288Z,17.90
2018-09-06T22:41:36.389Z,17.90
2018-09-06T22:46:39.460Z,17.80
2018-09-06T22:51:42.536Z,17.70
2018-09-06T22:56:45.678Z,17.70
2018-09-06T23:01:48.752Z,17.60
2018-09-06T23:06:51.915Z,17.60
2018-09-06T23:11:55.056Z,17.50
2018-09-06T23:16:58.129Z,17.50
2018-09-06T23:22:01.194Z,17.40
2018-09-06T23:27:04.273Z,17.40
2018-09-06T23:32:07.361Z,17.30
2018-09-06T23:37:10.433Z,17.20
2018-09-06T23:42:13.531Z,17.10
2018-09-06T23:47:16.617Z,17.00
2018-09-06T23:52:20.541Z,17.00
2018-09-06T23:57:23.632Z,16.90
